Dorothy Ann — WDE8761 — position and weather

sailwx.info

Track history (hours):
 
Tides and Currents Weather Stations Pressure Air Temp Water Temp Dewpoint Dewpoint Depression Visibility Wind Speed Wind Dir Waves Ship Positions

Dorothy Ann

Owner: THE INTERLAKE STEAMSHIP COMPANY, Middleburg Heights, OH. More information available from US FCC via Universal Licensing System and Coast Guard Vessel Documentation Center.

Last reported at 2015-Sep-02 05:00 UTC. Time now 2015-Sep-02 06:27 UTC.
Position N 41°30' W 081°42'.

Length 215 m; draft 6.2 m.

Type: Cargo ship. MMSI: 367409260.

Wind from 160 at 1 knots

Barometer 1019.1 mb
Air temperature 23.9 ° C
Water temperature 42.6 ° C

Date/timePositionNaut miles runAvg speedWind from/ knotsBaromVisibWave heightAir tempDewpointWater temp
2015-Sep-02 05:00N 41°30' W 081°42'0 0.0 160 / 11019.1 23.9 42.6
2015-Sep-02 04:00N 41°30' W 081°42'0 0.0 120 / 21018.8 24.4 42.6
2015-Sep-02 03:00N 41°30' W 081°42'0 0.0 120 / 21018.8 24.9 27.6
2015-Sep-02 02:00N 41°30' W 081°42'0 0.0 160 / 21018.8 25.4 27.5
2015-Sep-02 01:00N 41°30' W 081°42'0 0.0 150 / 21018.8 26.6 27.1
2015-Sep-02 00:00N 41°30' W 081°42'0 0.0 160 / 21018.1 27.2 27.0
2015-Sep-01 23:00N 41°30' W 081°42'0 0.0 200 / 51018.5 29.0 25.9
2015-Sep-01 22:00N 41°30' W 081°42'0 0.0 050 / 61018.1 26.4 25.5
2015-Sep-01 21:00N 41°30' W 081°42'0 0.0 030 / 61018.5 25.2 25.6
2015-Sep-01 20:00N 41°30' W 081°42'0 0.0 020 / 61018.8 25.0 25.7
2015-Sep-01 19:00N 41°30' W 081°42'0 0.0 330 / 31019.1 25.0 25.6
2015-Sep-01 18:00N 41°30' W 081°42'0 0.0 330 / 41019.8 24.6 25.7
2015-Sep-01 17:00N 41°30' W 081°42'0 0.0 350 / 51019.8 25.2 26.5
2015-Sep-01 16:00N 41°30' W 081°42'0 0.0 340 / 31020.1 27.7 26.5
2015-Sep-01 15:00N 41°30' W 081°42'0 0.0 320 / 41020.5 26.8 26.9
2015-Sep-01 14:00N 41°30' W 081°42'0 0.0 310 / 21020.5 27.2 27.8
2015-Sep-01 13:00N 41°30' W 081°42'0 0.0 230 / 41020.5 24.8 27.7
2015-Sep-01 12:00N 41°30' W 081°42'0 0.0 160 / 31020.1 22.8 27.6
2015-Sep-01 11:00N 41°30' W 081°42'0 0.0 110 / 11019.5 21.6 27.0
2015-Sep-01 10:00N 41°30' W 081°42'0 0.0 110 / 21019.1 21.6 27.2
2015-Sep-01 09:00N 41°30' W 081°42'0 0.0 140 / 31018.8 21.5 27.0
2015-Sep-01 08:00N 41°30' W 081°42'0 0.0 160 / 31018.8 21.6 27.4
2015-Sep-01 07:00N 41°30' W 081°42'0 0.0 200 / 41018.8 22.0 27.2
2015-Sep-01 06:00N 41°30' W 081°42'0 0.0 160 / 21019.1 22.5 26.3
2015-Sep-01 05:00N 41°30' W 081°42'0 0.0 140 / 31019.1 23.0 26.4
2015-Sep-01 04:00N 41°30' W 081°42'15 7.4 180 / 51018.8 24.5 24.8
2015-Sep-01 02:00N 41°36' W 082°00'7 7.5 160 / 81018.5 24.6 25.1
2015-Sep-01 01:00N 41°42' W 082°06'46 9.3 150 / 81017.8 24.0 25.2
2015-Aug-31 20:00N 41°54' W 083°06'1212.0 130 / 61018.1 24.3 23.5
2015-Aug-31 19:00N 42°06' W 083°06'6 6.0 170 / 111018.5 23.4 23.2
2015-Aug-31 18:00N 42°12' W 083°06'6 6.0 280 / 141018.6 26.2 23.1
2015-Aug-31 17:00N 42°18' W 083°06'0 0.0 290 / 91018.9 25.9 23.2
2015-Aug-31 16:00N 42°18' W 083°06'4 1.1 280 / 61019.6 25.4 23.1
2015-Aug-31 12:00N 42°18' W 083°00'1110.7 220 / 31018.6 20.7 22.5
2015-Aug-31 11:00N 42°24' W 082°48'7 7.5 290 / 71017.9 20.9 22.6
2015-Aug-31 10:00N 42°30' W 082°42'1110.7 280 / 61017.2 21.2 22.2
2015-Aug-31 09:00N 42°36' W 082°30'1212.0 220 / 31017.1 19.4 22.3
2015-Aug-31 08:00N 42°48' W 082°30'7 7.4 240 / 31017.1 19.7 22.2
2015-Aug-31 07:00N 42°54' W 082°24'1212.0 240 / 61016.7 20.6 22.1
2015-Aug-31 06:00N 43°06' W 082°24'6 6.0 260 / 91017.1 21.1 22.4
2015-Aug-31 05:00N 43°12' W 082°24'2412.0 260 / 101017.1 21.7 21.1
2015-Aug-31 03:00N 43°36' W 082°24'6 6.0 230 / 81017.1 21.4 22.5
2015-Aug-31 02:00N 43°42' W 082°24'1212.0 220 / 61016.7 21.1 22.4
2015-Aug-31 01:00N 43°54' W 082°24'7 7.4 180 / 81016.7 20.8 22.2
2015-Aug-31 00:00N 44°00' W 082°30'1212.0 180 / 51016.4 20.2 21.6
2015-Aug-30 23:00N 44°12' W 082°30'76 9.5 140 / 71015.7 19.8 21.3
2015-Aug-30 15:00N 45°24' W 083°06'1312.6 190 / 91018.8 17.0 19.4
2015-Aug-30 14:00N 45°24' W 083°24'8 8.4 180 / 51018.8 17.7 19.0
2015-Aug-30 13:00N 45°24' W 083°36'8 8.4 220 / 31018.4 16.6 19.2
2015-Aug-30 12:00N 45°24' W 083°48'0 0.0 240 / 51018.4 17.7 19.0
2015-Aug-30 11:00N 45°24' W 083°48'0 0.0 270 / 31018.1 15.7 19.2
2015-Aug-30 10:00N 45°24' W 083°48'0 0.0 260 / 61017.4 15.8 19.2
2015-Aug-30 09:00N 45°24' W 083°48'0 0.0 290 / 31017.4 16.1 19.2
2015-Aug-30 08:00N 45°24' W 083°48'0 0.0 250 / 101017.4 16.2 19.2
2015-Aug-30 07:00N 45°24' W 083°48'0 0.0 220 / 81017.4 16.6 19.2
2015-Aug-30 06:00N 45°24' W 083°48'0 0.0 220 / 71017.4 17.0 19.1
2015-Aug-30 05:00N 45°24' W 083°48'6 6.0 190 / 111017.4 17.3 19.2
2015-Aug-30 04:00N 45°30' W 083°48'2729.3 180 / 91018.1 18.3 19.1
2015-Aug-30 03:05N 45°52' W 084°10'4 7.6
2015-Aug-30 02:33N 45°55' W 084°13'915.7
2015-Aug-30 02:00N 45°48' W 084°06'1330.4 170 / 121018.1 18.3 14.6
2015-Aug-30 01:33N 45°59' W 084°17'610.5
2015-Aug-30 01:00N 45°54' W 084°12'613.7 190 / 181018.1 16.7 10.8
2015-Aug-30 00:34N 45°59' W 084°17'1 2.5
2015-Aug-30 00:00N 46°00' W 084°18'1 3.2 260 / 71017.4 18.7 10.2
2015-Aug-29 23:34N 45°59' W 084°17'1 2.5
2015-Aug-29 23:00N 46°00' W 084°18'0 0.0 260 / 81017.4 19.3 9.9
2015-Aug-29 22:00N 46°00' W 084°18'3 6.5 250 / 81017.7 19.4 9.9
2015-Aug-29 21:33N 45°58' W 084°15'3 5.1
2015-Aug-29 21:00N 46°00' W 084°18'4 4.2 260 / 71018.1 19.0 9.4
2015-Aug-29 20:00N 46°00' W 084°12'3 4.4 250 / 111018.1 19.1 10.2
2015-Aug-29 19:23N 45°58' W 084°15'3 6.9
2015-Aug-29 19:00N 46°00' W 084°12'510.8 220 / 81018.8 17.7 10.5
2015-Aug-29 18:32N 45°55' W 084°13'5 8.9
2015-Aug-29 18:00N 46°00' W 084°12'1326.2 240 / 61018.8 19.1 10.6
2015-Aug-29 17:31N 45°53' W 084°27'1010.2
2015-Aug-29 16:33N 45°50' W 084°40'814.5
2015-Aug-29 16:00N 45°54' W 084°30'1840.1 230 / 121019.1 17.4 17.0
2015-Aug-29 15:33N 45°50' W 084°54'915.8
2015-Aug-29 15:00N 45°48' W 084°42'1944.6 220 / 131019.110.8 0.517.9 19.5
2015-Aug-29 14:33N 45°51' W 085°09'1120.0
2015-Aug-29 14:00N 45°48' W 084°54'2148.1 230 / 181019.1 17.6 20.4
2015-Aug-29 13:33N 45°53' W 085°23'814.4
2015-Aug-29 13:00N 45°54' W 085°12'1841.5 220 / 191019.1 17.5 20.2
2015-Aug-29 12:33N 45°54' W 085°38'1017.5
2015-Aug-29 12:00N 45°54' W 085°24'1943.7 230 / 181018.8 17.5 19.5
2015-Aug-29 11:33N 45°51' W 085°51'1119.6
2015-Aug-29 11:00N 45°54' W 085°36'2246.2 230 / 231018.4 17.6 20.7
2015-Aug-29 10:31N 45°45' W 086°04'814.9
2015-Aug-29 10:00N 45°48' W 085°54'8 8.4 240 / 231018.4 17.7 20.8
2015-Aug-29 09:00N 45°48' W 086°06'1010.3 250 / 191018.8 19.4 21.0
2015-Aug-29 08:00N 45°42' W 086°18'48 9.7 260 / 221019.1 17.4 20.3
2015-Aug-29 03:00N 45°18' W 087°18'7 7.3 220 / 181018.4 21.0 18.4
2015-Aug-29 02:00N 45°12' W 087°24'1312.7 230 / 171018.4 16.6 16.4
2015-Aug-29 01:00N 45°00' W 087°30'7 7.4 220 / 121018.1 17.1 17.6
2015-Aug-29 00:00N 44°54' W 087°24'6 6.0 200 / 41018.1 18.8 18.6
2015-Aug-28 23:00N 44°48' W 087°24'0 0.0 200 / 71018.4 19.5 18.3
2015-Aug-28 22:00N 44°48' W 087°24'0 0.0 220 / 101018.1 20.7 18.8
2015-Aug-28 21:00N 44°48' W 087°24'0 0.0 180 / 81018.1 20.6 19.2
2015-Aug-28 20:00N 44°48' W 087°24'0 0.0 180 / 91018.410.8 0.519.8 19.2
2015-Aug-28 19:00N 44°48' W 087°24'0 0.0 180 / 141018.8 21.1 18.4
2015-Aug-28 18:00N 44°48' W 087°24'0 0.0 170 / 81019.1 21.4 18.6
2015-Aug-28 17:00N 44°48' W 087°24'0 0.0 220 / 81019.1 21.5 18.7
2015-Aug-28 16:00N 44°48' W 087°24'0 0.0 220 / 111019.8 20.9 18.4
2015-Aug-28 15:00N 44°48' W 087°24'0 0.0 200 / 61019.8 20.1 18.0
2015-Aug-28 14:00N 44°48' W 087°24'0 0.0 220 / 71019.8 18.4 18.3
2015-Aug-28 13:00N 44°48' W 087°24'0 0.0 210 / 61020.1 17.5 18.9
2015-Aug-28 12:00N 44°48' W 087°24'0 0.0 220 / 61020.4 15.4 18.9
2015-Aug-28 11:00N 44°48' W 087°24'0 0.0 200 / 71019.8 15.2 19.1
2015-Aug-28 10:00N 44°48' W 087°24'0 0.0 180 / 61019.1 14.9 19.1
2015-Aug-28 09:00N 44°48' W 087°24'0 0.0 190 / 71019.4 15.6 19.2
2015-Aug-28 08:00N 44°48' W 087°24'0 0.0 210 / 101019.4 15.9 19.2
2015-Aug-28 07:00N 44°48' W 087°24'0 0.0 200 / 121019.1 16.4 19.2
2015-Aug-28 06:00N 44°48' W 087°24'0 0.0 200 / 111019.1 16.4 19.2
2015-Aug-28 04:00N 44°48' W 087°24'0 0.0 200 / 101019.4 16.2 19.3
2015-Aug-28 03:00N 44°48' W 087°24'0 0.0 180 / 81019.8 16.0 19.5
2015-Aug-28 00:00N 44°48' W 087°24'0 0.0 160 / 91019.8 17.6 20.2
2015-Aug-27 23:00N 44°48' W 087°24'0 0.0 150 / 61019.8 19.3 20.1
2015-Aug-27 22:00N 44°48' W 087°24'0 0.0 180 / 81019.8 19.6 19.9
2015-Aug-27 21:00N 44°48' W 087°24'0 0.0 140 / 81020.1 19.3 19.4
2015-Aug-27 20:00N 44°48' W 087°24'0 0.0 190 / 11020.4 19.0 18.7
2015-Aug-27 19:00N 44°48' W 087°24'0 0.0 020 / 51021.1 15.9 18.4
2015-Aug-27 18:00N 44°48' W 087°24'0 0.0 340 / 81021.5 14.5 18.1
2015-Aug-27 17:00N 44°48' W 087°24'0 0.0 360 / 91021.8 15.0 17.8
2015-Aug-27 16:00N 44°48' W 087°24'0 0.0 180 / 21022.1 17.9 17.4
2015-Aug-27 15:00N 44°48' W 087°24'0 0.0 230 / 21021.8 14.9 17.0
2015-Aug-26 17:00N 44°48' W 087°24'0 0.0 340 / 121021.1 15.5 18.2
2015-Aug-26 16:00N 44°48' W 087°24'0 0.0 350 / 101021.1 15.3 18.3
2015-Aug-26 15:00N 44°48' W 087°24'0 0.0 330 / 81020.8 14.8 18.2
2015-Aug-26 14:00N 44°48' W 087°24'0 0.0 330 / 111020.8 14.3 18.2
2015-Aug-26 13:00N 44°48' W 087°24'0 0.0 320 / 131020.1 13.9 18.3
2015-Aug-26 11:00N 44°48' W 087°24'0 0.0 320 / 121019.1 14.0 18.1
2015-Aug-26 10:00N 44°48' W 087°24'0 0.0 310 / 91018.4 14.1 18.1
2015-Aug-26 09:00N 44°48' W 087°24'0 0.0 310 / 91018.4 14.0 18.2
2015-Aug-26 08:00N 44°48' W 087°24'0 0.0 300 / 91018.1 13.9 18.2
2015-Aug-26 07:00N 44°48' W 087°24'0 0.0 320 / 81018.1 14.1 18.2
2015-Aug-26 06:00N 44°48' W 087°24'0 0.0 310 / 81018.1 14.3 18.6
2015-Aug-26 05:00N 44°48' W 087°24'0 0.0 300 / 71018.1 14.3 18.6
2015-Aug-26 04:00N 44°48' W 087°24'0 0.0 310 / 91018.1 14.4 18.6
2015-Aug-26 03:00N 44°48' W 087°24'0 0.0 320 / 71018.1 14.6 18.5
2015-Aug-26 02:00N 44°48' W 087°24'6 6.0 340 / 181017.4 14.9 18.5
2015-Aug-26 01:00N 44°54' W 087°24'0 0.0 320 / 101017.1 15.9 18.7
2015-Aug-26 00:00N 44°54' W 087°24'1212.0 320 / 151016.7 15.3 16.8
2015-Aug-25 23:00N 45°06' W 087°24'6 6.0 320 / 131016.4 15.4 17.0
2015-Aug-25 22:00N 45°12' W 087°24'7 7.3 310 / 121016.0 14.6 13.0
2015-Aug-25 21:00N 45°18' W 087°18'4 4.2 320 / 171015.4 14.9 16.5
2015-Aug-25 20:00N 45°18' W 087°12'1010.3 300 / 161014.7 15.5 18.2
2015-Aug-25 19:00N 45°24' W 087°00'4 4.2 320 / 141014.7 15.2 20.6
2015-Aug-25 18:00N 45°24' W 086°54'8 8.4 310 / 141014.3 14.5 20.0
2015-Aug-25 17:00N 45°24' W 086°42'7 7.3 320 / 191014.010.8 2.013.6 19.0
2015-Aug-25 16:00N 45°30' W 086°36'7 7.3 320 / 191013.3 13.6 20.6
2015-Aug-25 15:00N 45°36' W 086°30'1010.3 320 / 191013.0 13.0 20.1
2015-Aug-25 14:00N 45°42' W 086°18'2 3.5 320 / 221012.3 12.3 20.9
2015-Aug-25 13:34N 45°43' W 086°17'610.3
2015-Aug-25 13:00N 45°48' W 086°12'2 4.2 300 / 211012.0 11.9 20.5
2015-Aug-25 12:33N 45°47' W 086°10'3 4.5
2015-Aug-25 12:00N 45°48' W 086°06'4 9.7 300 / 241011.0 11.4 20.8
2015-Aug-25 11:33N 45°51' W 086°02'3 5.8
2015-Aug-25 11:00N 45°54' W 086°00'511.1 300 / 201010.3 11.2 20.9
2015-Aug-25 10:33N 45°53' W 085°53'4 6.6
2015-Aug-25 10:00N 45°54' W 085°48'3 7.0 300 / 201009.9 12.0 21.5
2015-Aug-25 09:33N 45°53' W 085°44'1 2.4
2015-Aug-25 09:00N 45°54' W 085°42'511.9 290 / 181009.6 11.7 20.9
2015-Aug-25 08:33N 45°53' W 085°35'3 5.7
2015-Aug-25 08:00N 45°54' W 085°30'3 7.5 300 / 261008.9 12.2 20.0
2015-Aug-25 07:33N 45°53' W 085°25'6 6.4
2015-Aug-25 06:33N 45°53' W 085°16'3 5.7
2015-Aug-25 06:00N 45°54' W 085°12'4 9.0 310 / 251008.6 12.5 20.1
2015-Aug-25 05:34N 45°52' W 085°07'6 6.5
2015-Aug-25 04:33N 45°51' W 084°58'4 7.0
2015-Aug-25 04:00N 45°48' W 084°54'4 8.4 280 / 251008.6 13.4 21.4
2015-Aug-25 03:33N 45°50' W 084°49'2 3.3
2015-Aug-25 03:00N 45°48' W 084°48'511.1 300 / 231008.6 13.8 21.3
2015-Aug-25 02:33N 45°48' W 084°41'6 6.3
2015-Aug-25 01:33N 45°45' W 084°33'4 6.4
2015-Aug-25 01:00N 45°42' W 084°30'3 6.6 260 / 191008.3 13.0 19.9
2015-Aug-25 00:33N 45°42' W 084°26'1 2.3
2015-Aug-25 00:00N 45°42' W 084°24'511.0 240 / 161008.310.8 1.013.7 20.3
2015-Aug-24 23:33N 45°41' W 084°17'4 6.8
2015-Aug-24 23:00N 45°42' W 084°12'7 7.3 260 / 151007.6 13.3 19.8
2015-Aug-24 22:00N 45°36' W 084°06'4 4.2 240 / 181007.6 13.4 19.7
2015-Aug-24 21:00N 45°36' W 084°00'1010.3 290 / 211007.210.8 1.514.5 20.5
2015-Aug-24 20:00N 45°30' W 083°48'4 4.2 260 / 251006.6 15.7 19.9
2015-Aug-24 19:00N 45°30' W 083°42'4 4.2 240 / 201006.6 15.6 20.3
2015-Aug-24 18:00N 45°30' W 083°36'1010.3 260 / 261006.6 14.1 20.5
2015-Aug-24 17:00N 45°24' W 083°24'7 7.3 270 / 301005.9 17.4 20.5
2015-Aug-24 16:00N 45°18' W 083°18'4 4.2 240 / 181005.5 19.1 20.3
2015-Aug-24 15:00N 45°18' W 083°12'7 7.3 230 / 201005.9 18.7 20.7
2015-Aug-24 14:00N 45°12' W 083°06'1212.0 250 / 171006.6 17.6 19.2
2015-Aug-24 13:00N 45°00' W 083°06'6 6.0 220 / 141007.2 15.4 14.9
2015-Aug-24 12:00N 44°54' W 083°06'6 6.0 200 / 141007.6 15.3 20.5
2015-Aug-24 11:00N 44°48' W 083°06'7 7.4 220 / 141007.9 14.4 17.5
2015-Aug-24 10:00N 44°42' W 083°12'6 6.0 220 / 141008.3 14.2 17.1
2015-Aug-24 09:00N 44°36' W 083°12'25 5.0 250 / 121008.3 12.9 14.9
2015-Aug-24 04:00N 44°18' W 082°48'7 7.4 280 / 281008.9 18.6 22.0
2015-Aug-24 03:00N 44°12' W 082°42'7 7.4 270 / 271008.6 20.0 22.5
2015-Aug-24 02:00N 44°06' W 082°36'6 6.0 200 / 151008.6 19.2 22.2
2015-Aug-24 01:00N 44°00' W 082°36'7 7.4 160 / 121008.6 19.7 21.9
2015-Aug-24 00:00N 43°54' W 082°30'1212.0 160 / 151008.9 23.1 21.2
2015-Aug-23 23:00N 43°42' W 082°30'6 6.0 170 / 171009.6 20.1 21.2
2015-Aug-23 22:00N 43°36' W 082°30'6 6.0 180 / 131010.6 21.8 22.3
2015-Aug-23 21:00N 43°30' W 082°30'6 6.0 180 / 171011.0 23.0 20.5
2015-Aug-23 20:00N 43°24' W 082°30'1312.8 160 / 131011.3 27.9 22.6
2015-Aug-23 19:00N 43°12' W 082°24'6 6.0 170 / 161012.0 24.5 23.5
2015-Aug-23 18:00N 43°06' W 082°24'6 6.0 200 / 121013.0 24.3 23.4
2015-Aug-23 17:00N 43°00' W 082°24'7 7.4 180 / 141013.7 24.6 23.1
2015-Aug-23 16:00N 42°54' W 082°30'6 6.0 200 / 161014.7 23.3 23.1
2015-Aug-23 15:00N 42°48' W 082°30'0 0.0 190 / 121015.4 25.6 23.2
2015-Aug-23 14:00N 42°48' W 082°30'6 6.0 150 / 101015.7 21.5 23.1
2015-Aug-23 13:00N 42°42' W 082°30'6 6.0 150 / 71016.4 19.5 23.4
2015-Aug-23 12:00N 42°36' W 082°30'7 7.5 120 / 81016.4 17.3 23.4
2015-Aug-23 11:00N 42°30' W 082°36'4 4.4 100 / 101016.2 16.8 23.5
2015-Aug-23 10:00N 42°30' W 082°42'7 7.5 120 / 141016.2 21.2 24.3
2015-Aug-23 09:00N 42°24' W 082°48'1110.7 130 / 141016.2 21.6 25.1
2015-Aug-23 08:00N 42°18' W 083°00'4 4.4 140 / 81017.2 19.1 24.9
2015-Aug-23 07:00N 42°18' W 083°06'0 0.0 130 / 71017.5 19.6 25.4
2015-Aug-23 06:00N 42°18' W 083°06'0 0.0 120 / 51017.9 18.9 25.7
2015-Aug-23 05:00N 42°18' W 083°06'   140 / 51018.6 19.1 25.4
Track history (hours):
 
Tides and Currents Weather Stations Pressure Air Temp Water Temp Dewpoint Dewpoint Depression Visibility Wind Speed Wind Dir Waves Ship Positions

Dorothy Ann

Owner: THE INTERLAKE STEAMSHIP COMPANY, Middleburg Heights, OH. More information available from US FCC via Universal Licensing System and Coast Guard Vessel Documentation Center.

Last reported at 2015-Sep-02 05:00 UTC. Time now 2015-Sep-02 06:27 UTC.
Position N 41°30' W 081°42'.

Length 215 m; draft 6.2 m.

Type: Cargo ship. MMSI: 367409260.

Wind from 160 at 1 knots

Barometer 1019.1 mb
Air temperature 23.9 ° C
Water temperature 42.6 ° C

Date/timePositionNaut miles runAvg speedWind from/ knotsBaromVisibWave heightAir tempDewpointWater temp
2015-Sep-02 05:00N 41°30' W 081°42'0 0.0 160 / 11019.1 23.9 42.6
2015-Sep-02 04:00N 41°30' W 081°42'0 0.0 120 / 21018.8 24.4 42.6
2015-Sep-02 03:00N 41°30' W 081°42'0 0.0 120 / 21018.8 24.9 27.6
2015-Sep-02 02:00N 41°30' W 081°42'0 0.0 160 / 21018.8 25.4 27.5
2015-Sep-02 01:00N 41°30' W 081°42'0 0.0 150 / 21018.8 26.6 27.1
2015-Sep-02 00:00N 41°30' W 081°42'0 0.0 160 / 21018.1 27.2 27.0
2015-Sep-01 23:00N 41°30' W 081°42'0 0.0 200 / 51018.5 29.0 25.9
2015-Sep-01 22:00N 41°30' W 081°42'0 0.0 050 / 61018.1 26.4 25.5
2015-Sep-01 21:00N 41°30' W 081°42'0 0.0 030 / 61018.5 25.2 25.6
2015-Sep-01 20:00N 41°30' W 081°42'0 0.0 020 / 61018.8 25.0 25.7
2015-Sep-01 19:00N 41°30' W 081°42'0 0.0 330 / 31019.1 25.0 25.6
2015-Sep-01 18:00N 41°30' W 081°42'0 0.0 330 / 41019.8 24.6 25.7
2015-Sep-01 17:00N 41°30' W 081°42'0 0.0 350 / 51019.8 25.2 26.5
2015-Sep-01 16:00N 41°30' W 081°42'0 0.0 340 / 31020.1 27.7 26.5
2015-Sep-01 15:00N 41°30' W 081°42'0 0.0 320 / 41020.5 26.8 26.9
2015-Sep-01 14:00N 41°30' W 081°42'0 0.0 310 / 21020.5 27.2 27.8
2015-Sep-01 13:00N 41°30' W 081°42'0 0.0 230 / 41020.5 24.8 27.7
2015-Sep-01 12:00N 41°30' W 081°42'0 0.0 160 / 31020.1 22.8 27.6
2015-Sep-01 11:00N 41°30' W 081°42'0 0.0 110 / 11019.5 21.6 27.0
2015-Sep-01 10:00N 41°30' W 081°42'0 0.0 110 / 21019.1 21.6 27.2
2015-Sep-01 09:00N 41°30' W 081°42'0 0.0 140 / 31018.8 21.5 27.0
2015-Sep-01 08:00N 41°30' W 081°42'0 0.0 160 / 31018.8 21.6 27.4
2015-Sep-01 07:00N 41°30' W 081°42'0 0.0 200 / 41018.8 22.0 27.2
2015-Sep-01 06:00N 41°30' W 081°42'0 0.0 160 / 21019.1 22.5 26.3
2015-Sep-01 05:00N 41°30' W 081°42'0 0.0 140 / 31019.1 23.0 26.4
2015-Sep-01 04:00N 41°30' W 081°42'15 7.4 180 / 51018.8 24.5 24.8
2015-Sep-01 02:00N 41°36' W 082°00'7 7.5 160 / 81018.5 24.6 25.1
2015-Sep-01 01:00N 41°42' W 082°06'46 9.3 150 / 81017.8 24.0 25.2
2015-Aug-31 20:00N 41°54' W 083°06'1212.0 130 / 61018.1 24.3 23.5
2015-Aug-31 19:00N 42°06' W 083°06'6 6.0 170 / 111018.5 23.4 23.2
2015-Aug-31 18:00N 42°12' W 083°06'6 6.0 280 / 141018.6 26.2 23.1
2015-Aug-31 17:00N 42°18' W 083°06'0 0.0 290 / 91018.9 25.9 23.2
2015-Aug-31 16:00N 42°18' W 083°06'4 1.1 280 / 61019.6 25.4 23.1
2015-Aug-31 12:00N 42°18' W 083°00'1110.7 220 / 31018.6 20.7 22.5
2015-Aug-31 11:00N 42°24' W 082°48'7 7.5 290 / 71017.9 20.9 22.6
2015-Aug-31 10:00N 42°30' W 082°42'1110.7 280 / 61017.2 21.2 22.2
2015-Aug-31 09:00N 42°36' W 082°30'1212.0 220 / 31017.1 19.4 22.3
2015-Aug-31 08:00N 42°48' W 082°30'7 7.4 240 / 31017.1 19.7 22.2
2015-Aug-31 07:00N 42°54' W 082°24'1212.0 240 / 61016.7 20.6 22.1
2015-Aug-31 06:00N 43°06' W 082°24'6 6.0 260 / 91017.1 21.1 22.4
2015-Aug-31 05:00N 43°12' W 082°24'2412.0 260 / 101017.1 21.7 21.1
2015-Aug-31 03:00N 43°36' W 082°24'6 6.0 230 / 81017.1 21.4 22.5
2015-Aug-31 02:00N 43°42' W 082°24'1212.0 220 / 61016.7 21.1 22.4
2015-Aug-31 01:00N 43°54' W 082°24'7 7.4 180 / 81016.7 20.8 22.2
2015-Aug-31 00:00N 44°00' W 082°30'1212.0 180 / 51016.4 20.2 21.6
2015-Aug-30 23:00N 44°12' W 082°30'76 9.5 140 / 71015.7 19.8 21.3
2015-Aug-30 15:00N 45°24' W 083°06'1312.6 190 / 91018.8 17.0 19.4
2015-Aug-30 14:00N 45°24' W 083°24'8 8.4 180 / 51018.8 17.7 19.0
2015-Aug-30 13:00N 45°24' W 083°36'8 8.4 220 / 31018.4 16.6 19.2
2015-Aug-30 12:00N 45°24' W 083°48'0 0.0 240 / 51018.4 17.7 19.0
2015-Aug-30 11:00N 45°24' W 083°48'0 0.0 270 / 31018.1 15.7 19.2
2015-Aug-30 10:00N 45°24' W 083°48'0 0.0 260 / 61017.4 15.8 19.2
2015-Aug-30 09:00N 45°24' W 083°48'0 0.0 290 / 31017.4 16.1 19.2
2015-Aug-30 08:00N 45°24' W 083°48'0 0.0 250 / 101017.4 16.2 19.2
2015-Aug-30 07:00N 45°24' W 083°48'0 0.0 220 / 81017.4 16.6 19.2
2015-Aug-30 06:00N 45°24' W 083°48'0 0.0 220 / 71017.4 17.0 19.1
2015-Aug-30 05:00N 45°24' W 083°48'6 6.0 190 / 111017.4 17.3 19.2
2015-Aug-30 04:00N 45°30' W 083°48'2729.3 180 / 91018.1 18.3 19.1
2015-Aug-30 03:05N 45°52' W 084°10'4 7.6
2015-Aug-30 02:33N 45°55' W 084°13'915.7
2015-Aug-30 02:00N 45°48' W 084°06'1330.4 170 / 121018.1 18.3 14.6
2015-Aug-30 01:33N 45°59' W 084°17'610.5
2015-Aug-30 01:00N 45°54' W 084°12'613.7 190 / 181018.1 16.7 10.8
2015-Aug-30 00:34N 45°59' W 084°17'1 2.5
2015-Aug-30 00:00N 46°00' W 084°18'1 3.2 260 / 71017.4 18.7 10.2
2015-Aug-29 23:34N 45°59' W 084°17'1 2.5
2015-Aug-29 23:00N 46°00' W 084°18'0 0.0 260 / 81017.4 19.3 9.9
2015-Aug-29 22:00N 46°00' W 084°18'3 6.5 250 / 81017.7 19.4 9.9
2015-Aug-29 21:33N 45°58' W 084°15'3 5.1
2015-Aug-29 21:00N 46°00' W 084°18'4 4.2 260 / 71018.1 19.0 9.4
2015-Aug-29 20:00N 46°00' W 084°12'3 4.4 250 / 111018.1 19.1 10.2
2015-Aug-29 19:23N 45°58' W 084°15'3 6.9
2015-Aug-29 19:00N 46°00' W 084°12'510.8 220 / 81018.8 17.7 10.5
2015-Aug-29 18:32N 45°55' W 084°13'5 8.9
2015-Aug-29 18:00N 46°00' W 084°12'1326.2 240 / 61018.8 19.1 10.6
2015-Aug-29 17:31N 45°53' W 084°27'1010.2
2015-Aug-29 16:33N 45°50' W 084°40'814.5
2015-Aug-29 16:00N 45°54' W 084°30'1840.1 230 / 121019.1 17.4 17.0
2015-Aug-29 15:33N 45°50' W 084°54'915.8
2015-Aug-29 15:00N 45°48' W 084°42'1944.6 220 / 131019.110.8 0.517.9 19.5
2015-Aug-29 14:33N 45°51' W 085°09'1120.0
2015-Aug-29 14:00N 45°48' W 084°54'2148.1 230 / 181019.1 17.6 20.4
2015-Aug-29 13:33N 45°53' W 085°23'814.4
2015-Aug-29 13:00N 45°54' W 085°12'1841.5 220 / 191019.1 17.5 20.2
2015-Aug-29 12:33N 45°54' W 085°38'1017.5
2015-Aug-29 12:00N 45°54' W 085°24'1943.7 230 / 181018.8 17.5 19.5
2015-Aug-29 11:33N 45°51' W 085°51'1119.6
2015-Aug-29 11:00N 45°54' W 085°36'2246.2 230 / 231018.4 17.6 20.7
2015-Aug-29 10:31N 45°45' W 086°04'814.9
2015-Aug-29 10:00N 45°48' W 085°54'8 8.4 240 / 231018.4 17.7 20.8
2015-Aug-29 09:00N 45°48' W 086°06'1010.3 250 / 191018.8 19.4 21.0
2015-Aug-29 08:00N 45°42' W 086°18'48 9.7 260 / 221019.1 17.4 20.3
2015-Aug-29 03:00N 45°18' W 087°18'7 7.3 220 / 181018.4 21.0 18.4
2015-Aug-29 02:00N 45°12' W 087°24'1312.7 230 / 171018.4 16.6 16.4
2015-Aug-29 01:00N 45°00' W 087°30'7 7.4 220 / 121018.1 17.1 17.6
2015-Aug-29 00:00N 44°54' W 087°24'6 6.0 200 / 41018.1 18.8 18.6
2015-Aug-28 23:00N 44°48' W 087°24'0 0.0 200 / 71018.4 19.5 18.3
2015-Aug-28 22:00N 44°48' W 087°24'0 0.0 220 / 101018.1 20.7 18.8
2015-Aug-28 21:00N 44°48' W 087°24'0 0.0 180 / 81018.1 20.6 19.2
2015-Aug-28 20:00N 44°48' W 087°24'0 0.0 180 / 91018.410.8 0.519.8 19.2
2015-Aug-28 19:00N 44°48' W 087°24'0 0.0 180 / 141018.8 21.1 18.4
2015-Aug-28 18:00N 44°48' W 087°24'0 0.0 170 / 81019.1 21.4 18.6
2015-Aug-28 17:00N 44°48' W 087°24'0 0.0 220 / 81019.1 21.5 18.7
2015-Aug-28 16:00N 44°48' W 087°24'0 0.0 220 / 111019.8 20.9 18.4
2015-Aug-28 15:00N 44°48' W 087°24'0 0.0 200 / 61019.8 20.1 18.0
2015-Aug-28 14:00N 44°48' W 087°24'0 0.0 220 / 71019.8 18.4 18.3
2015-Aug-28 13:00N 44°48' W 087°24'0 0.0 210 / 61020.1 17.5 18.9
2015-Aug-28 12:00N 44°48' W 087°24'0 0.0 220 / 61020.4 15.4 18.9
2015-Aug-28 11:00N 44°48' W 087°24'0 0.0 200 / 71019.8 15.2 19.1
2015-Aug-28 10:00N 44°48' W 087°24'0 0.0 180 / 61019.1 14.9 19.1
2015-Aug-28 09:00N 44°48' W 087°24'0 0.0 190 / 71019.4 15.6 19.2
2015-Aug-28 08:00N 44°48' W 087°24'0 0.0 210 / 101019.4 15.9 19.2
2015-Aug-28 07:00N 44°48' W 087°24'0 0.0 200 / 121019.1 16.4 19.2
2015-Aug-28 06:00N 44°48' W 087°24'0 0.0 200 / 111019.1 16.4 19.2
2015-Aug-28 04:00N 44°48' W 087°24'0 0.0 200 / 101019.4 16.2 19.3
2015-Aug-28 03:00N 44°48' W 087°24'0 0.0 180 / 81019.8 16.0 19.5
2015-Aug-28 00:00N 44°48' W 087°24'0 0.0 160 / 91019.8 17.6 20.2
2015-Aug-27 23:00N 44°48' W 087°24'0 0.0 150 / 61019.8 19.3 20.1
2015-Aug-27 22:00N 44°48' W 087°24'0 0.0 180 / 81019.8 19.6 19.9
2015-Aug-27 21:00N 44°48' W 087°24'0 0.0 140 / 81020.1 19.3 19.4
2015-Aug-27 20:00N 44°48' W 087°24'0 0.0 190 / 11020.4 19.0 18.7
2015-Aug-27 19:00N 44°48' W 087°24'0 0.0 020 / 51021.1 15.9 18.4
2015-Aug-27 18:00N 44°48' W 087°24'0 0.0 340 / 81021.5 14.5 18.1
2015-Aug-27 17:00N 44°48' W 087°24'0 0.0 360 / 91021.8 15.0 17.8
2015-Aug-27 16:00N 44°48' W 087°24'0 0.0 180 / 21022.1 17.9 17.4
2015-Aug-27 15:00N 44°48' W 087°24'0 0.0 230 / 21021.8 14.9 17.0
2015-Aug-26 17:00N 44°48' W 087°24'0 0.0 340 / 121021.1 15.5 18.2
2015-Aug-26 16:00N 44°48' W 087°24'0 0.0 350 / 101021.1 15.3 18.3
2015-Aug-26 15:00N 44°48' W 087°24'0 0.0 330 / 81020.8 14.8 18.2
2015-Aug-26 14:00N 44°48' W 087°24'0 0.0 330 / 111020.8 14.3 18.2
2015-Aug-26 13:00N 44°48' W 087°24'0 0.0 320 / 131020.1 13.9 18.3
2015-Aug-26 11:00N 44°48' W 087°24'0 0.0 320 / 121019.1 14.0 18.1
2015-Aug-26 10:00N 44°48' W 087°24'0 0.0 310 / 91018.4 14.1 18.1
2015-Aug-26 09:00N 44°48' W 087°24'0 0.0 310 / 91018.4 14.0 18.2
2015-Aug-26 08:00N 44°48' W 087°24'0 0.0 300 / 91018.1 13.9 18.2
2015-Aug-26 07:00N 44°48' W 087°24'0 0.0 320 / 81018.1 14.1 18.2
2015-Aug-26 06:00N 44°48' W 087°24'0 0.0 310 / 81018.1 14.3 18.6
2015-Aug-26 05:00N 44°48' W 087°24'0 0.0 300 / 71018.1 14.3 18.6
2015-Aug-26 04:00N 44°48' W 087°24'0 0.0 310 / 91018.1 14.4 18.6
2015-Aug-26 03:00N 44°48' W 087°24'0 0.0 320 / 71018.1 14.6 18.5
2015-Aug-26 02:00N 44°48' W 087°24'6 6.0 340 / 181017.4 14.9 18.5
2015-Aug-26 01:00N 44°54' W 087°24'0 0.0 320 / 101017.1 15.9 18.7
2015-Aug-26 00:00N 44°54' W 087°24'1212.0 320 / 151016.7 15.3 16.8
2015-Aug-25 23:00N 45°06' W 087°24'6 6.0 320 / 131016.4 15.4 17.0
2015-Aug-25 22:00N 45°12' W 087°24'7 7.3 310 / 121016.0 14.6 13.0
2015-Aug-25 21:00N 45°18' W 087°18'4 4.2 320 / 171015.4 14.9 16.5
2015-Aug-25 20:00N 45°18' W 087°12'1010.3 300 / 161014.7 15.5 18.2
2015-Aug-25 19:00N 45°24' W 087°00'4 4.2 320 / 141014.7 15.2 20.6
2015-Aug-25 18:00N 45°24' W 086°54'8 8.4 310 / 141014.3 14.5 20.0
2015-Aug-25 17:00N 45°24' W 086°42'7 7.3 320 / 191014.010.8 2.013.6 19.0
2015-Aug-25 16:00N 45°30' W 086°36'7 7.3 320 / 191013.3 13.6 20.6
2015-Aug-25 15:00N 45°36' W 086°30'1010.3 320 / 191013.0 13.0 20.1
2015-Aug-25 14:00N 45°42' W 086°18'2 3.5 320 / 221012.3 12.3 20.9
2015-Aug-25 13:34N 45°43' W 086°17'610.3
2015-Aug-25 13:00N 45°48' W 086°12'2 4.2 300 / 211012.0 11.9 20.5
2015-Aug-25 12:33N 45°47' W 086°10'3 4.5
2015-Aug-25 12:00N 45°48' W 086°06'4 9.7 300 / 241011.0 11.4 20.8
2015-Aug-25 11:33N 45°51' W 086°02'3 5.8
2015-Aug-25 11:00N 45°54' W 086°00'511.1 300 / 201010.3 11.2 20.9
2015-Aug-25 10:33N 45°53' W 085°53'4 6.6
2015-Aug-25 10:00N 45°54' W 085°48'3 7.0 300 / 201009.9 12.0 21.5
2015-Aug-25 09:33N 45°53' W 085°44'1 2.4
2015-Aug-25 09:00N 45°54' W 085°42'511.9 290 / 181009.6 11.7 20.9
2015-Aug-25 08:33N 45°53' W 085°35'3 5.7
2015-Aug-25 08:00N 45°54' W 085°30'3 7.5 300 / 261008.9 12.2 20.0
2015-Aug-25 07:33N 45°53' W 085°25'6 6.4
2015-Aug-25 06:33N 45°53' W 085°16'3 5.7
2015-Aug-25 06:00N 45°54' W 085°12'4 9.0 310 / 251008.6 12.5 20.1
2015-Aug-25 05:34N 45°52' W 085°07'6 6.5
2015-Aug-25 04:33N 45°51' W 084°58'4 7.0
2015-Aug-25 04:00N 45°48' W 084°54'4 8.4 280 / 251008.6 13.4 21.4
2015-Aug-25 03:33N 45°50' W 084°49'2 3.3
2015-Aug-25 03:00N 45°48' W 084°48'511.1 300 / 231008.6 13.8 21.3
2015-Aug-25 02:33N 45°48' W 084°41'6 6.3
2015-Aug-25 01:33N 45°45' W 084°33'4 6.4
2015-Aug-25 01:00N 45°42' W 084°30'3 6.6 260 / 191008.3 13.0 19.9
2015-Aug-25 00:33N 45°42' W 084°26'1 2.3
2015-Aug-25 00:00N 45°42' W 084°24'511.0 240 / 161008.310.8 1.013.7 20.3
2015-Aug-24 23:33N 45°41' W 084°17'4 6.8
2015-Aug-24 23:00N 45°42' W 084°12'7 7.3 260 / 151007.6 13.3 19.8
2015-Aug-24 22:00N 45°36' W 084°06'4 4.2 240 / 181007.6 13.4 19.7
2015-Aug-24 21:00N 45°36' W 084°00'1010.3 290 / 211007.210.8 1.514.5 20.5
2015-Aug-24 20:00N 45°30' W 083°48'4 4.2 260 / 251006.6 15.7 19.9
2015-Aug-24 19:00N 45°30' W 083°42'4 4.2 240 / 201006.6 15.6 20.3
2015-Aug-24 18:00N 45°30' W 083°36'1010.3 260 / 261006.6 14.1 20.5
2015-Aug-24 17:00N 45°24' W 083°24'7 7.3 270 / 301005.9 17.4 20.5
2015-Aug-24 16:00N 45°18' W 083°18'4 4.2 240 / 181005.5 19.1 20.3
2015-Aug-24 15:00N 45°18' W 083°12'7 7.3 230 / 201005.9 18.7 20.7
2015-Aug-24 14:00N 45°12' W 083°06'1212.0 250 / 171006.6 17.6 19.2
2015-Aug-24 13:00N 45°00' W 083°06'6 6.0 220 / 141007.2 15.4 14.9
2015-Aug-24 12:00N 44°54' W 083°06'6 6.0 200 / 141007.6 15.3 20.5
2015-Aug-24 11:00N 44°48' W 083°06'7 7.4 220 / 141007.9 14.4 17.5
2015-Aug-24 10:00N 44°42' W 083°12'6 6.0 220 / 141008.3 14.2 17.1
2015-Aug-24 09:00N 44°36' W 083°12'25 5.0 250 / 121008.3 12.9 14.9
2015-Aug-24 04:00N 44°18' W 082°48'7 7.4 280 / 281008.9 18.6 22.0
2015-Aug-24 03:00N 44°12' W 082°42'7 7.4 270 / 271008.6 20.0 22.5
2015-Aug-24 02:00N 44°06' W 082°36'6 6.0 200 / 151008.6 19.2 22.2
2015-Aug-24 01:00N 44°00' W 082°36'7 7.4 160 / 121008.6 19.7 21.9
2015-Aug-24 00:00N 43°54' W 082°30'1212.0 160 / 151008.9 23.1 21.2
2015-Aug-23 23:00N 43°42' W 082°30'6 6.0 170 / 171009.6 20.1 21.2
2015-Aug-23 22:00N 43°36' W 082°30'6 6.0 180 / 131010.6 21.8 22.3
2015-Aug-23 21:00N 43°30' W 082°30'6 6.0 180 / 171011.0 23.0 20.5
2015-Aug-23 20:00N 43°24' W 082°30'1312.8 160 / 131011.3 27.9 22.6
2015-Aug-23 19:00N 43°12' W 082°24'6 6.0 170 / 161012.0 24.5 23.5
2015-Aug-23 18:00N 43°06' W 082°24'6 6.0 200 / 121013.0 24.3 23.4
2015-Aug-23 17:00N 43°00' W 082°24'7 7.4 180 / 141013.7 24.6 23.1
2015-Aug-23 16:00N 42°54' W 082°30'6 6.0 200 / 161014.7 23.3 23.1
2015-Aug-23 15:00N 42°48' W 082°30'0 0.0 190 / 121015.4 25.6 23.2
2015-Aug-23 14:00N 42°48' W 082°30'6 6.0 150 / 101015.7 21.5 23.1
2015-Aug-23 13:00N 42°42' W 082°30'6 6.0 150 / 71016.4 19.5 23.4
2015-Aug-23 12:00N 42°36' W 082°30'7 7.5 120 / 81016.4 17.3 23.4
2015-Aug-23 11:00N 42°30' W 082°36'4 4.4 100 / 101016.2 16.8 23.5
2015-Aug-23 10:00N 42°30' W 082°42'7 7.5 120 / 141016.2 21.2 24.3
2015-Aug-23 09:00N 42°24' W 082°48'1110.7 130 / 141016.2 21.6 25.1
2015-Aug-23 08:00N 42°18' W 083°00'4 4.4 140 / 81017.2 19.1 24.9
2015-Aug-23 07:00N 42°18' W 083°06'0 0.0 130 / 71017.5 19.6 25.4
2015-Aug-23 06:00N 42°18' W 083°06'0 0.0 120 / 51017.9 18.9 25.7
2015-Aug-23 05:00N 42°18' W 083°06'   140 / 51018.6 19.1 25.4

Dump ship's entire track history